Time;durP1;ratioP1;P1;durP2;ratioP2;P2;SDS_P1;SDS_P2;PMS_P1;PMS_P2;Temp;Humidity;BMP_temperature;BMP_pressure;BME280_temperature;BME280_humidity;BME280_pressure;Samples;Min_cycle;Max_cycle;Signal;HPM_P1;HPM_P2
2023/03/15 00:01:20;;;;;;;27.10;10.00;;;;;;;5.12;36.63;100116.92;109774;1238;59195;-74
2023/03/15 00:03:49;;;;;;;23.50;9.10;;;;;;;5.04;36.41;100118.43;109898;1238;73912;-77
2023/03/15 00:06:18;;;;;;;20.20;8.60;;;;;;;4.96;36.22;100115.26;109871;1241;57715;-78
2023/03/15 00:08:47;;;;;;;27.70;9.70;;;;;;;4.88;36.56;100111.42;109846;1241;57716;-75
2023/03/15 00:11:17;;;;;;;24.60;9.10;;;;;;;4.82;37.11;100111.76;109846;1242;62990;-79
2023/03/15 00:13:46;;;;;;;25.10;9.90;;;;;;;4.84;37.79;100110.81;109938;1238;71388;-77
2023/03/15 00:16:16;;;;;;;19.40;8.40;;;;;;;4.84;38.55;100109.78;109978;1238;70837;-77
2023/03/15 00:18:46;;;;;;;22.00;8.80;;;;;;;4.75;39.00;100108.35;110156;1241;63633;-78
2023/03/15 00:21:15;;;;;;;27.80;9.80;;;;;;;4.68;40.12;100114.98;110117;1241;59588;-75
2023/03/15 00:23:44;;;;;;;24.30;9.50;;;;;;;4.59;41.57;100115.17;110099;1238;62164;-76
2023/03/15 00:26:13;;;;;;;26.60;10.80;;;;;;;4.47;41.87;100116.70;110081;1238;74913;-77
2023/03/15 00:28:42;;;;;;;29.30;11.30;;;;;;;4.39;42.53;100109.59;110076;1237;62288;-76
2023/03/15 00:31:18;;;;;;;35.00;12.90;;;;;;;4.29;43.95;100105.65;109873;1242;59293;-78
2023/03/15 00:33:48;;;;;;;33.70;13.40;;;;;;;4.19;45.02;100100.84;110026;1237;63397;-78
2023/03/15 00:36:17;;;;;;;30.70;11.80;;;;;;;4.10;46.63;100102.40;109970;1238;59628;-80
2023/03/15 00:38:46;;;;;;;31.50;12.50;;;;;;;3.98;46.96;100100.48;110256;1236;57784;-75
2023/03/15 00:41:17;;;;;;;33.40;12.40;;;;;;;3.86;48.32;100096.11;110106;1237;73490;-76
2023/03/15 00:43:46;;;;;;;30.60;12.20;;;;;;;3.78;47.74;100093.48;110100;1236;72633;-71
2023/03/15 00:46:16;;;;;;;27.70;10.70;;;;;;;3.68;49.61;100088.34;110097;1238;69757;-72
2023/03/15 00:48:50;;;;;;;29.90;10.70;;;;;;;3.59;49.90;100084.34;109926;1243;63755;-73
2023/03/15 00:51:23;;;;;;;21.50;10.50;;;;;;;3.52;50.69;100081.45;110099;1238;59225;-73
2023/03/15 00:53:53;;;;;;;25.10;9.30;;;;;;;3.47;50.59;100081.55;110152;1236;60382;-71
2023/03/15 00:56:28;;;;;;;28.00;10.70;;;;;;;3.43;50.63;100078.45;110261;1238;74852;-72
2023/03/15 00:58:58;;;;;;;25.10;9.70;;;;;;;3.38;51.10;100070.63;110254;1239;62198;-71
2023/03/15 01:01:29;;;;;;;27.70;10.80;;;;;;;3.36;51.81;100066.10;110281;1239;59854;-71
2023/03/15 01:03:58;;;;;;;22.20;9.80;;;;;;;3.32;52.41;100055.77;109916;1241;62581;-72
2023/03/15 01:06:28;;;;;;;26.10;10.20;;;;;;;3.30;53.38;100050.09;110090;1242;57369;-73
2023/03/15 01:09:00;;;;;;;20.60;9.80;;;;;;;3.28;53.16;100048.45;109976;1241;58834;-72
2023/03/15 01:11:29;;;;;;;23.90;9.50;;;;;;;3.26;53.60;100044.74;110040;1238;62214;-72
2023/03/15 01:13:58;;;;;;;20.40;8.30;;;;;;;3.27;52.96;100045.77;110232;1238;70641;-72
2023/03/15 01:16:28;;;;;;;19.40;8.50;;;;;;;3.24;52.74;100044.22;110156;1238;60654;-72
2023/03/15 01:18:56;;;;;;;17.90;7.50;;;;;;;3.25;52.87;100047.10;110250;1237;72993;-74
2023/03/15 01:21:26;;;;;;;20.90;8.20;;;;;;;3.22;52.36;100051.48;110134;1240;60672;-76
2023/03/15 01:23:55;;;;;;;17.40;7.20;;;;;;;3.24;52.46;100044.02;110012;1238;57303;-76
2023/03/15 01:26:25;;;;;;;17.90;7.90;;;;;;;3.27;52.41;100041.63;110097;1237;70308;-75
2023/03/15 01:28:54;;;;;;;13.50;7.00;;;;;;;3.26;52.50;100034.45;110110;1241;62289;-76
2023/03/15 01:31:26;;;;;;;15.00;6.20;;;;;;;3.26;52.59;100034.10;109859;1238;70482;-74
2023/03/15 01:33:57;;;;;;;11.40;5.90;;;;;;;3.23;52.92;100033.73;109865;1238;74191;-75
2023/03/15 01:36:28;;;;;;;9.50;4.90;;;;;;;3.21;52.43;100039.68;110024;1241;60939;-74
2023/03/15 01:38:57;;;;;;;10.40;4.90;;;;;;;3.15;52.51;100031.39;110206;1239;61991;-72
2023/03/15 01:41:32;;;;;;;8.50;4.40;;;;;;;3.17;53.03;100033.50;109963;1237;73670;-72
2023/03/15 01:44:00;;;;;;;8.10;4.00;;;;;;;3.17;52.51;100023.02;110190;1239;72547;-73
2023/03/15 01:46:34;;;;;;;5.50;3.70;;;;;;;3.17;52.51;100022.17;110090;1242;70457;-71
2023/03/15 01:49:26;;;;;;;6.00;4.00;;;;;;;3.20;52.53;100017.21;109983;1241;72231;-72
2023/03/15 01:52:01;;;;;;;8.80;3.40;;;;;;;3.23;52.68;100009.68;109855;1241;57909;-73
2023/03/15 01:54:55;;;;;;;8.90;3.80;;;;;;;3.25;52.90;100002.98;110104;1238;57711;-78
2023/03/15 01:57:35;;;;;;;5.50;3.50;;;;;;;3.29;53.08;99995.71;110081;1241;73687;-77
2023/03/15 02:00:10;;;;;;;6.00;3.20;;;;;;;3.29;53.08;99996.23;110076;1241;62439;-78
2023/03/15 02:03:08;;;;;;;7.20;3.20;;;;;;;3.33;52.78;99993.29;110048;1238;70498;-78
2023/03/15 02:05:46;;;;;;;6.30;3.60;;;;;;;3.33;52.98;99993.45;110061;1241;72286;-74
2023/03/15 02:08:25;;;;;;;7.00;3.90;;;;;;;3.32;53.71;99992.79;109876;1241;59619;-74
2023/03/15 02:10:57;;;;;;;;;;;;;;;3.31;54.20;99992.35;110122;1241;61674;-75
2023/03/15 02:13:29;;;;;;;9.10;4.00;;;;;;;3.30;54.37;99991.73;110083;1238;62666;-74
2023/03/15 02:15:59;;;;;;;6.00;3.80;;;;;;;3.32;54.03;99996.56;110030;1237;70728;-74
2023/03/15 02:18:34;;;;;;;10.00;4.30;;;;;;;3.36;53.65;99998.13;110023;1242;70115;-73
2023/03/15 02:21:07;;;;;;;6.80;4.20;;;;;;;3.34;54.35;99996.13;110041;1238;72634;-74
2023/03/15 02:23:36;;;;;;;8.40;4.20;;;;;;;3.32;55.05;99995.90;110048;1241;57615;-75
2023/03/15 02:26:33;;;;;;;8.60;4.10;;;;;;;3.27;55.46;99996.52;110104;1238;61051;-74
2023/03/15 02:29:02;;;;;;;7.90;4.20;;;;;;;3.25;56.02;99994.92;110081;1238;71273;-72
2023/03/15 02:31:36;;;;;;;10.40;4.90;;;;;;;3.24;55.62;99992.41;110027;1241;61660;-72
2023/03/15 02:34:06;;;;;;;7.90;4.40;;;;;;;3.22;55.50;99995.23;110076;1238;69649;-72
2023/03/15 02:36:36;;;;;;;7.50;4.30;;;;;;;3.24;56.00;99992.55;110071;1241;63749;-73
2023/03/15 02:39:20;;;;;;;6.00;4.00;;;;;;;3.24;56.28;99995.00;110050;1241;58975;-74
2023/03/15 02:41:57;;;;;;;6.30;4.20;;;;;;;3.20;56.96;99994.00;109961;1241;57618;-77
2023/03/15 02:44:34;;;;;;;6.90;4.80;;;;;;;3.16;57.66;99992.61;110095;1237;62556;-78
2023/03/15 02:47:19;;;;;;;7.60;4.50;;;;;;;3.10;58.32;99991.59;109976;1237;61687;-78
2023/03/15 02:49:52;;;;;;;8.20;4.70;;;;;;;3.05;59.12;99994.58;109866;1238;69639;-75
2023/03/15 02:52:22;;;;;;;9.20;4.40;;;;;;;3.02;59.56;99999.74;109998;1239;72323;-75
2023/03/15 02:54:51;;;;;;;9.00;5.00;;;;;;;2.95;60.54;99999.75;109782;1241;60438;-77
2023/03/15 02:57:20;;;;;;;12.00;5.00;;;;;;;2.86;62.33;100000.58;109951;1238;61288;-76
2023/03/15 02:59:49;;;;;;;9.30;4.70;;;;;;;2.78;62.87;99997.02;109853;1240;74828;-75
2023/03/15 03:02:18;;;;;;;12.00;5.80;;;;;;;2.74;61.96;99992.95;109867;1238;72627;-75
2023/03/15 03:04:47;;;;;;;8.20;4.70;;;;;;;2.68;62.87;99991.88;109780;1238;59987;-74
2023/03/15 03:07:18;;;;;;;7.10;4.80;;;;;;;2.65;63.65;99995.95;109872;1240;71912;-74
2023/03/15 03:09:49;;;;;;;8.20;4.80;;;;;;;2.61;64.18;99998.06;109823;1238;62460;-74
2023/03/15 03:12:19;;;;;;;6.40;4.70;;;;;;;2.57;64.75;99999.28;109837;1241;60730;-74
2023/03/15 03:14:48;;;;;;;10.00;5.00;;;;;;;2.55;65.77;99996.67;109753;1238;74120;-75
2023/03/15 03:17:19;;;;;;;7.50;4.70;;;;;;;2.52;66.17;99995.10;109767;1241;63813;-75
2023/03/15 03:19:48;;;;;;;10.70;5.20;;;;;;;2.51;65.68;99992.05;109639;1239;68998;-76
2023/03/15 03:22:18;;;;;;;9.60;5.70;;;;;;;2.45;66.75;99989.06;109842;1241;70806;-75
2023/03/15 03:24:47;;;;;;;10.60;5.10;;;;;;;2.45;66.68;99986.69;109878;1237;59191;-76
2023/03/15 03:27:17;;;;;;;7.90;5.00;;;;;;;2.44;66.73;99986.37;109821;1238;57672;-76
2023/03/15 03:29:47;;;;;;;8.80;5.20;;;;;;;2.44;66.64;99992.25;109715;1238;72777;-75
2023/03/15 03:32:16;;;;;;;8.80;5.30;;;;;;;2.39;67.73;99993.15;109810;1237;61296;-75
2023/03/15 03:34:47;;;;;;;7.30;4.90;;;;;;;2.32;68.42;99996.06;109673;1236;68653;-74
2023/03/15 03:37:23;;;;;;;8.90;5.50;;;;;;;2.31;68.55;99999.20;109838;1238;73016;-73
2023/03/15 03:39:57;;;;;;;10.00;6.10;;;;;;;2.28;70.45;100003.52;110028;1239;57650;-75
2023/03/15 03:42:26;;;;;;;10.30;5.90;;;;;;;2.23;71.02;100005.29;109695;1238;61177;-77
2023/03/15 03:44:54;;;;;;;10.10;5.50;;;;;;;2.16;71.02;100004.09;110036;1238;73893;-76
2023/03/15 03:47:25;;;;;;;8.50;5.70;;;;;;;2.10;72.34;100007.80;110023;1236;70883;-78
2023/03/15 03:49:54;;;;;;;11.10;6.20;;;;;;;2.06;72.87;100010.27;109930;1241;70979;-79
2023/03/15 03:52:22;;;;;;;10.60;6.40;;;;;;;2.04;73.45;100012.73;110010;1239;73380;-75
2023/03/15 03:54:52;;;;;;;10.50;6.70;;;;;;;1.97;74.98;100009.16;109916;1238;59851;-75
2023/03/15 03:57:21;;;;;;;20.50;9.20;;;;;;;1.94;74.87;100010.66;109945;1239;59622;-79
2023/03/15 03:59:50;;;;;;;21.40;9.60;;;;;;;1.88;75.29;100005.08;109924;1238;73560;-75
2023/03/15 04:02:18;;;;;;;26.50;11.20;;;;;;;1.90;75.95;99998.86;110043;1238;71993;-74
2023/03/15 04:04:58;;;;;;;35.40;13.00;;;;;;;1.81;76.76;100003.02;109856;1238;71785;-72
2023/03/15 04:07:27;;;;;;;38.90;13.90;;;;;;;1.81;76.98;100010.90;109831;1238;72703;-76
2023/03/15 04:09:56;;;;;;;38.30;14.30;;;;;;;1.82;77.15;100013.27;109871;1241;57265;-75
2023/03/15 04:12:25;;;;;;;28.80;12.80;;;;;;;1.78;77.54;100013.80;110117;1238;58790;-71
2023/03/15 04:14:55;;;;;;;30.20;11.80;;;;;;;1.79;77.45;100014.47;110051;1238;72693;-71
2023/03/15 04:17:27;;;;;;;31.10;11.40;;;;;;;1.82;77.55;100017.23;109958;1238;72759;-70
2023/03/15 04:19:58;;;;;;;30.10;11.10;;;;;;;1.84;77.28;100017.48;110284;1237;69797;-72
2023/03/15 04:22:28;;;;;;;19.90;9.10;;;;;;;1.83;77.03;100020.79;110132;1239;73566;-70
2023/03/15 04:25:07;;;;;;;19.80;8.70;;;;;;;1.82;77.33;100020.66;109997;1239;60884;-70
2023/03/15 04:28:23;;;;;;;18.70;8.30;;;;;;;1.89;77.39;100024.11;110161;1238;59676;-72
2023/03/15 04:31:15;;;;;;;12.10;6.90;;;;;;;1.90;76.78;100027.02;110285;1238;73456;-72
2023/03/15 04:34:03;;;;;;;10.30;6.40;;;;;;;1.92;77.73;100027.91;110165;1238;70146;-71
2023/03/15 04:36:45;;;;;;;10.80;6.10;;;;;;;1.94;77.83;100031.45;110026;1238;67861;-72
2023/03/15 04:39:37;;;;;;;11.20;6.60;;;;;;;1.94;78.39;100033.15;110090;1238;71897;-76
2023/03/15 04:42:56;;;;;;;12.90;6.90;;;;;;;1.97;78.64;100034.01;110291;1238;57743;-83
2023/03/15 04:45:44;;;;;;;13.50;7.30;;;;;;;2.01;79.28;100033.67;110069;1238;58842;-80
2023/03/15 04:49:05;;;;;;;15.10;6.60;;;;;;;2.08;79.46;100028.86;109947;1238;71726;-83
2023/03/15 04:51:49;;;;;;;16.10;8.80;;;;;;;2.12;79.25;100030.73;110078;1237;71889;-81
2023/03/15 04:54:44;;;;;;;16.70;8.30;;;;;;;2.17;79.74;100033.11;110075;1239;68582;-78
2023/03/15 04:57:20;;;;;;;17.90;10.20;;;;;;;2.24;79.89;100035.67;110082;1238;73935;-80
2023/03/15 05:00:42;;;;;;;16.50;8.80;;;;;;;2.31;79.24;100042.68;110063;1239;59670;-80
2023/03/15 05:03:52;;;;;;;21.30;11.10;;;;;;;2.42;78.62;100039.74;110025;1239;59744;-82
2023/03/15 05:06:39;;;;;;;22.80;9.20;;;;;;;2.49;78.47;100039.61;110304;1238;70830;-80
2023/03/15 05:09:49;;;;;;;17.80;9.70;;;;;;;2.65;77.59;100037.42;110330;1237;69513;-80
2023/03/15 05:12:36;;;;;;;16.10;8.60;;;;;;;2.80;76.70;100040.25;110197;1238;70423;-81
2023/03/15 05:15:37;;;;;;;16.40;8.70;;;;;;;2.98;76.03;100043.50;110256;1236;72334;-82
2023/03/15 05:18:32;;;;;;;16.90;8.20;;;;;;;3.09;75.79;100053.41;110112;1236;60398;-84
2023/03/15 05:21:24;;;;;;;15.50;8.40;;;;;;;3.28;74.85;100047.07;110260;1236;60941;-80
2023/03/15 05:24:43;;;;;;;13.10;7.20;;;;;;;3.52;74.37;100045.45;109780;1238;62238;-86
2023/03/15 05:27:35;;;;;;;9.90;6.80;;;;;;;3.82;74.16;100041.05;109977;1237;72186;-83
2023/03/15 05:30:15;;;;;;;14.40;7.90;;;;;;;3.98;73.44;100037.42;110362;1236;69066;-83
2023/03/15 05:33:03;;;;;;;11.10;7.00;;;;;;;4.12;72.97;100039.38;110227;1237;62926;-83
2023/03/15 05:35:43;;;;;;;12.70;7.00;;;;;;;4.26;72.82;100039.11;110302;1238;60923;-82
2023/03/15 05:38:59;;;;;;;13.00;6.90;;;;;;;4.44;72.21;100037.57;110033;1239;57276;-84
2023/03/15 05:42:08;;;;;;;15.90;7.70;;;;;;;4.64;71.30;100037.92;110174;1238;62941;-81
2023/03/15 05:45:21;;;;;;;14.00;6.90;;;;;;;4.65;71.11;100034.80;110037;1237;60921;-79
2023/03/15 05:48:42;;;;;;;12.60;6.50;;;;;;;4.82;70.57;100031.35;110173;1236;59984;-79
2023/03/15 05:51:58;;;;;;;11.20;6.80;;;;;;;4.99;70.30;100040.88;110162;1238;72706;-78
2023/03/15 05:54:45;;;;;;;12.60;6.60;;;;;;;5.14;69.61;100041.02;110283;1238;57702;-77
2023/03/15 05:57:57;;;;;;;8.90;6.20;;;;;;;5.32;68.35;100039.26;110112;1238;61381;-79
2023/03/15 06:00:38;;;;;;;10.30;6.60;;;;;;;5.38;68.36;100042.84;110028;1238;65390;-78
2023/03/15 06:03:11;;;;;;;8.80;6.40;;;;;;;5.45;67.95;100042.73;110124;1239;62125;-77
2023/03/15 06:05:46;;;;;;;11.80;6.00;;;;;;;5.28;67.64;100040.88;110150;1236;59203;-80
2023/03/15 06:08:18;;;;;;;13.10;6.60;;;;;;;5.43;67.65;100041.81;109653;1238;375709;-79
2023/03/15 06:10:48;;;;;;;8.60;6.10;;;;;;;5.58;67.45;100043.67;109914;1240;60775;-78
2023/03/15 06:13:17;;;;;;;11.00;7.00;;;;;;;5.81;66.28;100051.70;109915;1237;60793;-77
2023/03/15 06:15:46;;;;;;;8.40;5.60;;;;;;;6.02;65.67;100047.02;110184;1238;72710;-77
2023/03/15 06:18:18;;;;;;;9.70;6.30;;;;;;;6.12;64.86;100046.15;109962;1238;72560;-78
2023/03/15 06:20:48;;;;;;;8.30;5.90;;;;;;;6.22;63.82;100049.33;110039;1237;70806;-78
2023/03/15 06:23:18;;;;;;;10.80;6.00;;;;;;;6.16;63.68;100055.23;109861;1241;73022;-78
2023/03/15 06:25:47;;;;;;;12.20;5.50;;;;;;;6.26;63.28;100051.68;110080;1241;57205;-76
2023/03/15 06:28:16;;;;;;;18.60;6.70;;;;;;;6.31;62.42;100053.25;110288;1239;57842;-75
2023/03/15 06:30:50;;;;;;;8.70;4.90;;;;;;;6.41;62.10;100051.93;110321;1238;62954;-78
2023/03/15 06:33:24;;;;;;;8.20;5.20;;;;;;;6.36;61.28;100043.77;110277;1237;72259;-77
2023/03/15 06:35:53;;;;;;;8.00;5.30;;;;;;;6.32;61.06;100045.89;110114;1238;59644;-80
2023/03/15 06:38:22;;;;;;;9.30;5.30;;;;;;;6.34;61.18;100046.10;110240;1238;73855;-80
2023/03/15 06:40:50;;;;;;;9.20;5.50;;;;;;;6.50;61.31;100044.39;110117;1239;58887;-73
2023/03/15 06:43:19;;;;;;;8.80;5.40;;;;;;;6.48;61.31;100038.27;110047;1241;58025;-90
2023/03/15 06:45:48;;;;;;;11.20;5.30;;;;;;;6.45;61.46;100039.02;110051;1238;62981;-80
2023/03/15 06:48:17;;;;;;;9.30;5.40;;;;;;;6.56;61.13;100044.69;110187;1239;60820;-80
2023/03/15 06:50:47;;;;;;;10.40;6.10;;;;;;;6.65;60.93;100047.33;110039;1239;69564;-79
2023/03/15 06:53:16;;;;;;;9.60;5.40;;;;;;;6.72;60.49;100038.79;110027;1239;72151;-80
2023/03/15 06:55:46;;;;;;;9.20;5.40;;;;;;;6.73;60.43;100035.90;109909;1241;57533;-79
2023/03/15 06:58:15;;;;;;;8.10;5.50;;;;;;;6.68;61.01;100038.35;110045;1238;61001;-80
2023/03/15 07:00:44;;;;;;;6.40;4.80;;;;;;;6.83;60.61;100046.85;110025;1239;63412;-80
2023/03/15 07:03:13;;;;;;;9.70;5.50;;;;;;;7.01;59.98;100050.84;110028;1239;72079;-79
2023/03/15 07:05:41;;;;;;;7.30;5.20;;;;;;;7.03;59.93;100049.65;109920;1237;70487;-83
2023/03/15 07:08:10;;;;;;;9.40;5.30;;;;;;;7.03;60.01;100051.56;110138;1237;63591;-83
2023/03/15 07:10:39;;;;;;;6.90;5.00;;;;;;;7.12;59.69;100061.86;110153;1239;57997;-80
2023/03/15 07:13:08;;;;;;;10.30;5.20;;;;;;;7.08;59.70;100066.64;110155;1238;61257;-84
2023/03/15 07:15:38;;;;;;;13.50;4.60;;;;;;;7.10;59.54;100068.03;110050;1236;73936;-82
2023/03/15 07:18:07;;;;;;;7.70;4.70;;;;;;;7.21;59.69;100074.22;110209;1238;71452;-81
2023/03/15 07:20:36;;;;;;;9.70;5.80;;;;;;;7.36;59.61;100076.86;110057;1238;70981;-78
2023/03/15 07:23:05;;;;;;;13.90;6.20;;;;;;;7.49;59.35;100073.70;110054;1239;62792;-80
2023/03/15 07:25:34;;;;;;;9.60;5.40;;;;;;;7.47;59.34;100072.64;110075;1238;60426;-83
2023/03/15 07:28:23;;;;;;;8.60;5.30;;;;;;;7.31;59.89;100072.00;110146;1239;57372;-78
2023/03/15 07:31:04;;;;;;;8.10;5.20;;;;;;;7.46;59.50;100063.86;109965;1238;62211;-80
2023/03/15 07:33:35;;;;;;;7.40;5.20;;;;;;;7.46;59.01;100060.91;110005;1237;72767;-79
2023/03/15 07:36:06;;;;;;;9.80;5.20;;;;;;;7.32;58.97;100048.02;110115;1237;70869;-80
2023/03/15 07:38:35;;;;;;;8.80;4.90;;;;;;;7.58;58.16;100047.92;110110;1241;63551;-79
2023/03/15 07:41:05;;;;;;;7.60;5.30;;;;;;;7.52;58.53;100042.45;109996;1241;57645;-82
2023/03/15 07:43:37;;;;;;;10.70;5.80;;;;;;;7.56;58.64;100045.30;109997;1241;59816;-76
2023/03/15 07:46:11;;;;;;;10.20;4.80;;;;;;;7.58;58.78;100050.02;110154;1239;63507;-75
2023/03/15 07:48:40;;;;;;;10.30;6.00;;;;;;;7.42;59.16;100049.70;110192;1239;61608;-75
2023/03/15 07:51:09;;;;;;;9.60;5.40;;;;;;;7.66;58.34;100051.36;110187;1236;70490;-80
2023/03/15 07:53:37;;;;;;;12.50;5.70;;;;;;;7.81;57.82;100047.66;109867;1236;73399;-80
2023/03/15 07:56:06;;;;;;;7.60;5.10;;;;;;;8.02;57.39;100047.09;110051;1239;57398;-79
2023/03/15 07:58:36;;;;;;;10.20;5.00;;;;;;;8.28;56.76;100054.38;110184;1238;57172;-81
2023/03/15 08:01:04;;;;;;;11.90;5.10;;;;;;;8.40;56.01;100054.89;110247;1238;73933;-79
2023/03/15 08:03:33;;;;;;;7.10;4.40;;;;;;;8.54;55.11;100048.66;110229;1238;62043;-78
2023/03/15 08:06:02;;;;;;;9.80;5.20;;;;;;;8.68;54.69;100041.89;110197;1239;59176;-79
2023/03/15 08:08:31;;;;;;;9.30;5.70;;;;;;;8.64;54.80;100031.58;110176;1239;73833;-81
2023/03/15 08:11:00;;;;;;;9.90;5.50;;;;;;;8.70;54.69;100026.61;110136;1237;60978;-78
2023/03/15 08:13:29;;;;;;;7.80;4.80;;;;;;;8.80;54.34;100028.48;110029;1241;61539;-78
2023/03/15 08:15:57;;;;;;;8.00;5.30;;;;;;;9.03;53.94;100019.08;110048;1241;64642;-79
2023/03/15 08:18:30;;;;;;;8.60;4.80;;;;;;;9.10;53.07;100012.61;110259;1238;61635;-82
2023/03/15 08:20:59;;;;;;;8.80;5.10;;;;;;;9.08;53.39;100008.80;109940;1238;69736;-79
2023/03/15 08:23:27;;;;;;;11.30;5.60;;;;;;;9.03;53.84;100013.37;110155;1238;73559;-79
2023/03/15 08:25:56;;;;;;;10.00;5.30;;;;;;;8.98;53.83;100014.58;110161;1238;57713;-78
2023/03/15 08:28:25;;;;;;;9.70;5.90;;;;;;;9.10;53.75;100010.38;110098;1237;57895;-78
2023/03/15 08:30:54;;;;;;;12.20;5.50;;;;;;;9.19;53.57;100011.43;110177;1238;62972;-80
2023/03/15 08:33:23;;;;;;;10.30;5.30;;;;;;;9.59;52.95;100014.71;109994;1238;72400;-78
2023/03/15 08:35:53;;;;;;;11.00;5.60;;;;;;;9.90;52.12;100008.02;109889;1241;69307;-79
2023/03/15 08:38:21;;;;;;;9.80;5.70;;;;;;;10.00;51.60;100001.11;110236;1238;64780;-81
2023/03/15 08:40:56;;;;;;;8.60;5.60;;;;;;;9.93;51.11;99995.83;110168;1239;57902;-80
2023/03/15 08:43:25;;;;;;;8.00;4.90;;;;;;;9.74;50.92;99997.31;110072;1239;57436;-83
2023/03/15 08:45:54;;;;;;;8.70;5.20;;;;;;;9.88;50.97;100001.23;109930;1237;73276;-80
2023/03/15 08:48:30;;;;;;;13.20;8.70;;;;;;;10.46;50.79;100006.80;110069;1237;73145;-81
2023/03/15 08:51:05;;;;;;;7.90;5.00;;;;;;;10.77;49.61;100002.59;109929;1240;60348;-81
2023/03/15 08:53:34;;;;;;;8.60;4.80;;;;;;;10.86;47.93;100000.98;109871;1241;62510;-80
2023/03/15 08:56:03;;;;;;;8.50;4.80;;;;;;;11.04;47.47;100001.36;110234;1238;57566;-82
2023/03/15 08:58:33;;;;;;;8.00;5.00;;;;;;;10.84;47.38;100002.35;110182;1239;57234;-82
2023/03/15 09:01:03;;;;;;;7.40;4.50;;;;;;;10.71;47.80;100004.14;110297;1237;73465;-82
2023/03/15 09:03:33;;;;;;;11.00;5.20;;;;;;;11.24;46.67;99999.85;110259;1237;62143;-79
2023/03/15 09:06:02;;;;;;;9.30;4.90;;;;;;;11.27;47.04;99999.73;110400;1237;70985;-82
2023/03/15 09:08:32;;;;;;;6.90;4.50;;;;;;;11.48;45.56;99996.17;110355;1237;74325;-81
2023/03/15 09:11:01;;;;;;;8.50;4.40;;;;;;;11.37;44.61;99997.81;110358;1238;62501;-82
2023/03/15 09:13:30;;;;;;;7.70;4.10;;;;;;;11.58;44.14;99995.85;110280;1237;57429;-82
2023/03/15 09:15:58;;;;;;;9.10;4.60;;;;;;;11.80;43.93;99997.52;109990;1239;72698;-80
2023/03/15 09:18:28;;;;;;;8.80;5.30;;;;;;;12.01;43.43;99991.33;110371;1238;62796;-79
2023/03/15 09:20:56;;;;;;;11.10;4.60;;;;;;;11.85;43.13;99983.34;110390;1238;62028;-79
2023/03/15 09:23:26;;;;;;;12.00;4.80;;;;;;;11.93;43.17;99985.60;110418;1238;64367;-84
2023/03/15 09:25:54;;;;;;;8.40;4.90;;;;;;;12.21;42.36;99983.64;110178;1239;60212;-79
2023/03/15 09:28:26;;;;;;;11.70;5.50;;;;;;;12.51;41.90;99984.68;110300;1239;57222;-79
2023/03/15 09:30:55;;;;;;;6.60;4.50;;;;;;;12.06;42.19;99990.14;110145;1238;62988;-80
2023/03/15 09:33:26;;;;;;;7.90;4.70;;;;;;;11.98;42.48;99988.43;110091;1240;72321;-78
2023/03/15 09:35:55;;;;;;;7.30;4.30;;;;;;;12.38;42.01;99987.79;109969;1237;70831;-82
2023/03/15 09:38:25;;;;;;;7.00;4.20;;;;;;;12.63;40.65;99984.27;110195;1236;62971;-79
2023/03/15 09:40:58;;;;;;;7.60;4.40;;;;;;;12.56;40.54;99991.02;110329;1237;57604;-83
2023/03/15 09:43:59;;;;;;;7.60;4.50;;;;;;;12.32;40.92;99994.25;110136;1237;57966;-82
2023/03/15 09:47:35;;;;;;;6.90;4.80;;;;;;;12.37;40.90;99994.35;110239;1238;62985;-81
2023/03/15 09:50:18;;;;;;;7.80;4.00;;;;;;;11.86;40.53;99993.51;109853;1241;72138;-79
2023/03/15 09:52:59;;;;;;;7.60;4.40;;;;;;;11.90;40.11;100003.80;110121;1238;70009;-80
2023/03/15 09:55:28;;;;;;;8.00;4.10;;;;;;;12.14;39.18;100000.09;110096;1238;74235;-82
2023/03/15 09:58:12;;;;;;;9.00;3.80;;;;;;;12.30;38.47;99992.23;110355;1238;57732;-81
2023/03/15 10:00:49;;;;;;;6.00;3.10;;;;;;;12.35;37.70;99990.88;110270;1237;57602;-79
2023/03/15 10:03:44;;;;;;;10.30;3.70;;;;;;;12.43;37.51;99992.92;110244;1238;62135;-78
2023/03/15 10:06:39;;;;;;;7.70;3.80;;;;;;;12.88;36.88;99998.03;110082;1238;72227;-82
2023/03/15 10:09:19;;;;;;;7.00;3.20;;;;;;;13.10;36.86;99991.45;110101;1237;70412;-79
2023/03/15 10:12:09;;;;;;;6.10;3.40;;;;;;;13.15;36.42;99990.42;110184;1237;62891;-81
2023/03/15 10:14:55;;;;;;;8.30;3.40;;;;;;;13.16;36.44;99988.98;110251;1238;61222;-79
2023/03/15 10:18:16;;;;;;;7.20;3.30;;;;;;;13.39;36.04;99991.86;110072;1236;57709;-78
2023/03/15 10:20:57;;;;;;;5.70;4.00;;;;;;;13.73;35.17;99995.70;109639;1244;62486;-82
2023/03/15 10:23:40;;;;;;;6.90;3.20;;;;;;;13.78;34.71;99989.33;110171;1237;72894;-80
2023/03/15 10:26:13;;;;;;;;;;;;;;;13.47;34.82;99988.14;110123;1236;69647;-80
2023/03/15 10:28:43;;;;;;;4.20;2.40;;;;;;;13.44;34.11;99979.97;110081;1238;74238;-82
2023/03/15 10:31:22;;;;;;;7.20;2.70;;;;;;;13.60;33.78;99981.44;109909;1241;57725;-78
2023/03/15 10:34:10;;;;;;;7.00;2.60;;;;;;;13.58;32.63;99980.59;110035;1236;57221;-81
2023/03/15 10:36:48;;;;;;;5.10;2.20;;;;;;;13.30;32.78;99979.79;109853;1241;74181;-80
2023/03/15 10:39:18;;;;;;;6.40;2.80;;;;;;;13.39;32.60;99982.02;110152;1238;61228;-82
2023/03/15 10:41:49;;;;;;;6.00;3.10;;;;;;;13.48;33.03;99974.85;110173;1236;69628;-80
2023/03/15 10:44:25;;;;;;;5.70;2.60;;;;;;;13.34;33.23;99978.13;110053;1236;62987;-83
2023/03/15 10:47:23;;;;;;;4.80;2.50;;;;;;;13.73;32.16;99971.25;110143;1239;61294;-80
2023/03/15 10:49:58;;;;;;;4.50;2.30;;;;;;;13.71;32.26;99972.34;110122;1238;57211;-79
2023/03/15 10:52:38;;;;;;;4.60;2.60;;;;;;;14.21;31.76;99975.41;110010;1236;72699;-78
2023/03/15 10:55:20;;;;;;;5.70;2.40;;;;;;;13.82;32.39;99972.94;109910;1238;62260;-84
2023/03/15 10:58:01;;;;;;;4.00;2.20;;;;;;;13.69;32.68;99970.60;109914;1236;59127;-80
2023/03/15 11:00:35;;;;;;;5.50;2.30;;;;;;;14.06;32.66;99965.05;109773;1241;64379;-79
2023/03/15 11:03:19;;;;;;;9.20;2.90;;;;;;;14.50;31.98;99957.88;109778;1240;57172;-80
2023/03/15 11:05:52;;;;;;;6.40;2.30;;;;;;;14.16;32.20;99958.62;109866;1237;57785;-79
2023/03/15 11:08:40;;;;;;;7.40;2.50;;;;;;;14.77;31.95;99957.22;109908;1236;73680;-82
2023/03/15 11:11:10;;;;;;;5.00;2.30;;;;;;;14.74;31.09;99947.59;109884;1237;62097;-83
2023/03/15 11:13:40;;;;;;;4.80;2.00;;;;;;;15.07;31.19;99945.73;109910;1237;70454;-79
2023/03/15 11:16:12;;;;;;;8.00;4.30;;;;;;;15.35;30.42;99943.06;109910;1237;63208;-79
2023/03/15 11:19:02;;;;;;;7.30;3.90;;;;;;;15.13;30.43;99950.77;110154;1238;57636;-79
2023/03/15 11:21:33;;;;;;;6.20;2.50;;;;;;;14.76;31.09;99947.10;110043;1238;60343;-80
2023/03/15 11:24:05;;;;;;;5.50;2.00;;;;;;;14.11;32.03;99949.86;109971;1237;73991;-79
2023/03/15 11:26:38;;;;;;;4.20;2.00;;;;;;;14.45;32.01;99950.48;110298;1236;61404;-80
2023/03/15 11:29:25;;;;;;;8.20;2.30;;;;;;;14.99;31.31;99951.89;110182;1238;69900;-79
2023/03/15 11:31:57;;;;;;;8.70;2.60;;;;;;;15.30;31.31;99949.10;110011;1238;73505;-80
2023/03/15 11:34:53;;;;;;;4.60;2.20;;;;;;;14.46;31.38;99951.59;110164;1239;62030;-82
2023/03/15 11:37:30;;;;;;;6.90;3.40;;;;;;;14.41;31.41;99952.61;110185;1237;61065;-81
2023/03/15 11:40:21;;;;;;;4.80;2.20;;;;;;;13.66;32.25;99943.58;109868;1237;74338;-82
2023/03/15 11:42:56;;;;;;;6.90;2.20;;;;;;;13.87;32.37;99949.08;110039;1237;62136;-83
2023/03/15 11:45:52;;;;;;;7.00;2.00;;;;;;;14.09;32.18;99957.08;110140;1236;59960;-82
2023/03/15 11:49:07;;;;;;;5.20;2.30;;;;;;;14.57;31.71;99952.66;109956;1237;74434;-82
2023/03/15 11:51:36;;;;;;;4.20;2.00;;;;;;;14.37;32.31;99951.42;109708;1239;61332;-78
2023/03/15 11:54:29;;;;;;;6.90;2.70;;;;;;;15.08;31.62;99939.45;110052;1238;61071;-79
2023/03/15 11:57:27;;;;;;;11.00;3.80;;;;;;;15.75;30.75;99938.11;109981;1238;74674;-79
2023/03/15 12:00:14;;;;;;;5.60;2.20;;;;;;;15.56;30.66;99934.19;110033;1236;71754;-80
2023/03/15 12:02:54;;;;;;;6.30;2.60;;;;;;;15.85;30.46;99928.77;109744;1236;60378;-79
2023/03/15 12:05:50;;;;;;;6.00;2.50;;;;;;;15.30;32.21;99929.16;109906;1236;62511;-79